Time;durP1;ratioP1;P1;durP2;ratioP2;P2;SDS_P1;SDS_P2;PMS_P1;PMS_P2;Temp;Humidity;BMP_temperature;BMP_pressure;BME280_temperature;BME280_humidity;BME280_pressure;Samples;Min_cycle;Max_cycle;Signal;HPM_P1;HPM_P2
2021/11/29 00:00:25;;;;;;;66.80;25.73;;;;;;;;;;5070672;28;20123;-71
2021/11/29 00:02:53;;;;;;;59.38;25.63;;;;;;;;;;5079076;28;20012;-71
2021/11/29 00:05:20;;;;;;;57.08;25.00;;;;;;;;;;5073243;28;20063;-71
2021/11/29 00:07:45;;;;;;;59.97;27.50;;;;;;;;;;5075489;28;20031;-71
2021/11/29 00:10:10;;;;;;;62.97;26.70;;;;;;;;;;5085580;28;20020;-71
2021/11/29 00:12:36;;;;;;;58.13;25.30;;;;;;;;;;5088933;28;20082;-70
2021/11/29 00:15:02;;;;;;;55.33;28.45;;;;;;;;;;5085349;28;20048;-71
2021/11/29 00:17:28;;;;;;;45.42;21.90;;;;;;;;;;5104743;28;20027;-71
2021/11/29 00:19:53;;;;;;;47.25;21.65;;;;;;;;;;5084420;28;20016;-71
2021/11/29 00:22:18;;;;;;;35.53;17.70;;;;;;;;;;5083975;28;20032;-71
2021/11/29 00:24:43;;;;;;;29.63;15.80;;;;;;;;;;5080441;28;20459;-72
2021/11/29 00:27:09;;;;;;;31.05;13.52;;;;;;;;;;5076648;28;20020;-70
2021/11/29 00:29:34;;;;;;;24.45;12.68;;;;;;;;;;5087977;28;20035;-71
2021/11/29 00:31:59;;;;;;;24.85;12.30;;;;;;;;;;5097264;28;20035;-71
2021/11/29 00:34:24;;;;;;;28.85;12.73;;;;;;;;;;5078784;28;20029;-71
2021/11/29 00:36:50;;;;;;;26.10;12.45;;;;;;;;;;5098804;28;20047;-70
2021/11/29 00:39:17;;;;;;;28.52;12.27;;;;;;;;;;5090074;28;20025;-71
2021/11/29 00:41:42;;;;;;;29.63;12.82;;;;;;;;;;5080982;28;20354;-70
2021/11/29 00:44:07;;;;;;;28.20;13.63;;;;;;;;;;5087707;28;20081;-71
2021/11/29 00:46:32;;;;;;;25.13;13.25;;;;;;;;;;5077807;28;20108;-71
2021/11/29 00:48:58;;;;;;;28.13;12.75;;;;;;;;;;5081774;28;20385;-74
2021/11/29 00:51:23;;;;;;;32.50;12.18;;;;;;;;;;5073704;28;20028;-72
2021/11/29 00:53:48;;;;;;;34.22;12.93;;;;;;;;;;5070375;28;20020;-71
2021/11/29 00:56:15;;;;;;;28.00;12.43;;;;;;;;;;5077995;28;20020;-72
2021/11/29 00:58:40;;;;;;;26.90;13.07;;;;;;;;;;5090237;28;20024;-72
2021/11/29 01:01:05;;;;;;;34.20;14.95;;;;;;;;;;5074614;28;20148;-72
2021/11/29 01:03:30;;;;;;;30.85;13.88;;;;;;;;;;5084789;28;20067;-72
2021/11/29 01:05:55;;;;;;;28.23;13.05;;;;;;;;;;5072128;28;20070;-72
2021/11/29 01:08:21;;;;;;;24.55;13.15;;;;;;;;;;5083430;28;20075;-71
2021/11/29 01:10:46;;;;;;;34.50;15.38;;;;;;;;;;5089917;28;20115;-70
2021/11/29 01:13:11;;;;;;;34.58;13.80;;;;;;;;;;5079259;28;20023;-72
2021/11/29 01:15:37;;;;;;;32.33;13.75;;;;;;;;;;5072801;28;20024;-71
2021/11/29 01:18:08;;;;;;;34.72;14.15;;;;;;;;;;5079711;28;20021;-72
2021/11/29 01:20:34;;;;;;;31.17;13.95;;;;;;;;;;5075828;28;20032;-71
2021/11/29 01:22:59;;;;;;;25.83;13.63;;;;;;;;;;5089685;28;20016;-71
2021/11/29 01:25:24;;;;;;;32.55;13.30;;;;;;;;;;5094204;28;20038;-72
2021/11/29 01:27:49;;;;;;;40.92;15.82;;;;;;;;;;5083845;28;20020;-71
2021/11/29 01:30:15;;;;;;;27.75;13.15;;;;;;;;;;5084057;28;20063;-72
2021/11/29 01:32:40;;;;;;;32.53;14.10;;;;;;;;;;5073752;28;20028;-72
2021/11/29 01:35:05;;;;;;;28.63;13.40;;;;;;;;;;5077484;28;20086;-72
2021/11/29 01:37:30;;;;;;;29.25;12.73;;;;;;;;;;5086883;28;20009;-72
2021/11/29 01:39:56;;;;;;;33.97;12.88;;;;;;;;;;5092662;28;20032;-71
2021/11/29 01:42:21;;;;;;;32.03;13.45;;;;;;;;;;5091651;28;20035;-71
2021/11/29 01:44:46;;;;;;;26.08;12.57;;;;;;;;;;5093075;28;20098;-71
2021/11/29 01:47:11;;;;;;;25.10;12.02;;;;;;;;;;5092880;28;20020;-70
2021/11/29 01:49:36;;;;;;;26.33;13.43;;;;;;;;;;5080771;28;20020;-70
2021/11/29 01:52:02;;;;;;;27.02;11.88;;;;;;;;;;5083866;28;20040;-70
2021/11/29 01:54:27;;;;;;;25.50;11.82;;;;;;;;;;5073627;28;20078;-70
2021/11/29 01:56:53;;;;;;;24.00;11.23;;;;;;;;;;5074263;28;20032;-71
2021/11/29 01:59:18;;;;;;;25.45;12.05;;;;;;;;;;5090925;28;20016;-72
2021/11/29 02:01:43;;;;;;;32.38;13.18;;;;;;;;;;5072728;28;20015;-70
2021/11/29 02:04:11;;;;;;;21.17;11.00;;;;;;;;;;5074064;28;20035;-73
2021/11/29 02:06:37;;;;;;;27.35;10.75;;;;;;;;;;5077672;28;20106;-74
2021/11/29 02:09:03;;;;;;;29.05;12.32;;;;;;;;;;5087516;28;20147;-69
2021/11/29 02:11:28;;;;;;;27.27;10.60;;;;;;;;;;5082539;28;20047;-70
2021/11/29 02:13:59;;;;;;;32.70;12.80;;;;;;;;;;5074055;28;20121;-71
2021/11/29 02:16:24;;;;;;;30.30;11.93;;;;;;;;;;5087315;28;20165;-70
2021/11/29 02:18:51;;;;;;;35.08;11.65;;;;;;;;;;5091772;28;20521;-72
2021/11/29 02:21:18;;;;;;;23.60;11.77;;;;;;;;;;5098934;28;20016;-71
2021/11/29 02:23:48;;;;;;;33.13;13.60;;;;;;;;;;5085341;28;20031;-73
2021/11/29 02:26:14;;;;;;;29.77;13.00;;;;;;;;;;5072538;28;20036;-70
2021/11/29 02:28:40;;;;;;;26.55;12.15;;;;;;;;;;5073521;28;20017;-70
2021/11/29 02:31:06;;;;;;;23.90;12.25;;;;;;;;;;5083655;28;20087;-70
2021/11/29 02:33:32;;;;;;;30.50;12.70;;;;;;;;;;5089576;28;20018;-75
2021/11/29 02:35:57;;;;;;;28.13;11.98;;;;;;;;;;5088049;28;20028;-71
2021/11/29 02:38:22;;;;;;;20.23;10.85;;;;;;;;;;5082262;28;20019;-73
2021/11/29 02:40:47;;;;;;;21.90;10.75;;;;;;;;;;5072078;28;20059;-70
2021/11/29 02:43:13;;;;;;;23.95;11.10;;;;;;;;;;5074055;28;20358;-70
2021/11/29 02:45:38;;;;;;;18.17;10.07;;;;;;;;;;5074133;28;20058;-70
2021/11/29 02:48:03;;;;;;;20.98;11.02;;;;;;;;;;5080494;28;20042;-70
2021/11/29 02:50:33;;;;;;;21.42;10.75;;;;;;;;;;5078278;28;20024;-71
2021/11/29 02:52:58;;;;;;;27.05;11.90;;;;;;;;;;5074408;28;20737;-72
2021/11/29 02:55:23;;;;;;;20.70;11.38;;;;;;;;;;5090133;28;20028;-70
2021/11/29 02:57:48;;;;;;;20.70;11.23;;;;;;;;;;5085483;28;20012;-74
2021/11/29 03:00:14;;;;;;;23.27;11.85;;;;;;;;;;5088243;28;20621;-70
2021/11/29 03:02:39;;;;;;;23.63;10.60;;;;;;;;;;5072110;28;20031;-72
2021/11/29 03:05:04;;;;;;;16.65;10.35;;;;;;;;;;5074878;28;20051;-69
2021/11/29 03:07:30;;;;;;;22.92;11.45;;;;;;;;;;5076064;28;20063;-69
2021/11/29 03:09:55;;;;;;;24.80;10.40;;;;;;;;;;5071939;28;20036;-70
2021/11/29 03:12:21;;;;;;;17.63;10.35;;;;;;;;;;5074652;28;20020;-69
2021/11/29 03:14:46;;;;;;;19.60;10.27;;;;;;;;;;5071627;28;20048;-69
2021/11/29 03:17:11;;;;;;;21.48;10.07;;;;;;;;;;5091060;28;20540;-72
2021/11/29 03:19:37;;;;;;;22.17;9.32;;;;;;;;;;5075739;28;20442;-69
2021/11/29 03:22:05;;;;;;;15.55;8.77;;;;;;;;;;5078072;28;20012;-69
2021/11/29 03:24:30;;;;;;;18.17;9.75;;;;;;;;;;5078526;28;20027;-69
2021/11/29 03:26:55;;;;;;;20.00;9.43;;;;;;;;;;5079017;28;20028;-69
2021/11/29 03:29:21;;;;;;;20.45;9.18;;;;;;;;;;5080013;28;20086;-69
2021/11/29 03:31:50;;;;;;;18.10;9.07;;;;;;;;;;5089796;28;20048;-70
2021/11/29 03:34:16;;;;;;;21.73;9.25;;;;;;;;;;5088199;28;20020;-72
2021/11/29 03:36:43;;;;;;;15.73;8.98;;;;;;;;;;5088940;28;20099;-72
2021/11/29 03:39:10;;;;;;;20.13;8.98;;;;;;;;;;5087067;28;20048;-69
2021/11/29 03:41:36;;;;;;;18.73;9.35;;;;;;;;;;5072441;28;20078;-72
2021/11/29 03:44:01;;;;;;;20.67;9.40;;;;;;;;;;5075370;28;20444;-69
2021/11/29 03:46:26;;;;;;;19.08;8.55;;;;;;;;;;5082334;28;20036;-70
2021/11/29 03:48:52;;;;;;;18.45;8.65;;;;;;;;;;5089858;28;20067;-68
2021/11/29 03:51:17;;;;;;;17.15;9.40;;;;;;;;;;5081353;28;20455;-69
2021/11/29 03:53:42;;;;;;;18.10;9.30;;;;;;;;;;5079105;28;20028;-68
2021/11/29 03:56:07;;;;;;;21.50;9.18;;;;;;;;;;5074389;28;20032;-69
2021/11/29 03:58:33;;;;;;;17.10;8.82;;;;;;;;;;5071161;28;20044;-71
2021/11/29 04:00:58;;;;;;;16.58;8.57;;;;;;;;;;5077466;28;20021;-69
2021/11/29 04:03:23;;;;;;;23.33;9.82;;;;;;;;;;5089491;28;20069;-71
2021/11/29 04:05:48;;;;;;;21.48;9.95;;;;;;;;;;5090058;28;20028;-68
2021/11/29 04:08:14;;;;;;;35.78;11.48;;;;;;;;;;5078751;28;20021;-70
2021/11/29 04:10:39;;;;;;;27.08;11.32;;;;;;;;;;5089964;28;20035;-72
2021/11/29 04:13:05;;;;;;;22.95;11.60;;;;;;;;;;5073579;28;20033;-69
2021/11/29 04:15:30;;;;;;;23.63;12.10;;;;;;;;;;5082470;28;20041;-68
2021/11/29 04:17:55;;;;;;;22.80;11.80;;;;;;;;;;5085022;28;20027;-71
2021/11/29 04:20:21;;;;;;;23.80;10.82;;;;;;;;;;5084285;28;20025;-68
2021/11/29 04:22:47;;;;;;;21.15;11.23;;;;;;;;;;5073812;28;20020;-68
2021/11/29 04:25:14;;;;;;;23.75;11.48;;;;;;;;;;5081808;28;20100;-68
2021/11/29 04:27:42;;;;;;;20.77;11.70;;;;;;;;;;5071644;28;20027;-69
2021/11/29 04:30:13;;;;;;;28.38;12.68;;;;;;;;;;5077690;28;20054;-68
2021/11/29 04:32:39;;;;;;;25.42;12.10;;;;;;;;;;5087535;28;20038;-68
2021/11/29 04:35:04;;;;;;;27.13;10.73;;;;;;;;;;5085094;28;20028;-74
2021/11/29 04:37:29;;;;;;;24.05;12.15;;;;;;;;;;5076514;28;20124;-68
2021/11/29 04:39:55;;;;;;;25.25;11.43;;;;;;;;;;5072904;28;20051;-69
2021/11/29 04:42:20;;;;;;;26.60;12.30;;;;;;;;;;5081993;28;20480;-71
2021/11/29 04:44:45;;;;;;;20.75;11.85;;;;;;;;;;5088063;28;20031;-69
2021/11/29 04:47:10;;;;;;;20.33;11.23;;;;;;;;;;5070519;28;20024;-71
2021/11/29 04:49:36;;;;;;;21.35;11.05;;;;;;;;;;5074968;28;20563;-69
2021/11/29 04:52:01;;;;;;;32.72;12.30;;;;;;;;;;5078023;28;20024;-71
2021/11/29 04:54:26;;;;;;;22.92;11.52;;;;;;;;;;5072080;28;20077;-68
2021/11/29 04:56:52;;;;;;;27.60;10.77;;;;;;;;;;5077734;28;20029;-72
2021/11/29 04:59:17;;;;;;;25.67;11.85;;;;;;;;;;5087171;28;20099;-69
2021/11/29 05:01:42;;;;;;;16.80;7.88;;;;;;;;;;5073958;28;20036;-70
2021/11/29 05:04:07;;;;;;;29.13;12.55;;;;;;;;;;5075303;28;20103;-69
2021/11/29 05:06:33;;;;;;;28.67;14.07;;;;;;;;;;5075136;28;20019;-69
2021/11/29 05:08:58;;;;;;;26.98;14.40;;;;;;;;;;5075300;28;20843;-70
2021/11/29 05:11:24;;;;;;;27.35;13.65;;;;;;;;;;5088350;28;20031;-69
2021/11/29 05:13:49;;;;;;;32.42;13.23;;;;;;;;;;5090017;28;20032;-72
2021/11/29 05:16:14;;;;;;;23.88;10.95;;;;;;;;;;5088875;28;20098;-68
2021/11/29 05:18:39;;;;;;;28.63;13.18;;;;;;;;;;5074635;28;20103;-71
2021/11/29 05:21:05;;;;;;;29.05;12.27;;;;;;;;;;5092888;28;20020;-68
2021/11/29 05:23:30;;;;;;;33.65;13.50;;;;;;;;;;5088849;28;20020;-70
2021/11/29 05:25:56;;;;;;;38.33;14.52;;;;;;;;;;5076109;28;20098;-68
2021/11/29 05:28:21;;;;;;;26.52;13.15;;;;;;;;;;5096565;28;20537;-69
2021/11/29 05:30:46;;;;;;;30.35;12.60;;;;;;;;;;5083794;28;20046;-70
2021/11/29 05:33:12;;;;;;;28.88;12.68;;;;;;;;;;5084077;28;20436;-69
2021/11/29 05:35:37;;;;;;;30.33;13.60;;;;;;;;;;5082256;28;20016;-69
2021/11/29 05:38:02;;;;;;;28.20;12.73;;;;;;;;;;5089604;28;20028;-70
2021/11/29 05:40:28;;;;;;;20.35;11.88;;;;;;;;;;5080096;28;20021;-69
2021/11/29 05:42:53;;;;;;;29.48;12.20;;;;;;;;;;5077100;28;20024;-70
2021/11/29 05:45:18;;;;;;;26.27;12.20;;;;;;;;;;5079668;28;20537;-72
2021/11/29 05:47:44;;;;;;;22.13;10.90;;;;;;;;;;5090199;28;20031;-71
2021/11/29 05:50:10;;;;;;;29.27;12.65;;;;;;;;;;5081576;28;20430;-69
2021/11/29 05:52:36;;;;;;;26.77;11.18;;;;;;;;;;5071397;28;20048;-68
2021/11/29 05:55:01;;;;;;;18.67;9.52;;;;;;;;;;5074454;28;20409;-70
2021/11/29 05:57:26;;;;;;;24.35;9.38;;;;;;;;;;5089941;28;20063;-71
2021/11/29 05:59:52;;;;;;;27.42;10.02;;;;;;;;;;5094682;28;20039;-69
2021/11/29 06:02:17;;;;;;;18.92;10.85;;;;;;;;;;5092403;28;20468;-71
2021/11/29 06:04:42;;;;;;;20.33;9.30;;;;;;;;;;5071755;28;20031;-68
2021/11/29 06:07:07;;;;;;;13.40;7.72;;;;;;;;;;5081554;28;20142;-70
2021/11/29 06:09:32;;;;;;;16.58;10.25;;;;;;;;;;5084579;28;20020;-68
2021/11/29 06:11:58;;;;;;;19.45;8.32;;;;;;;;;;5071263;28;20059;-69
2021/11/29 06:14:25;;;;;;;22.75;8.10;;;;;;;;;;5076690;28;20092;-73
2021/11/29 06:16:51;;;;;;;13.65;7.57;;;;;;;;;;5090445;28;20039;-70
2021/11/29 06:19:16;;;;;;;17.90;8.25;;;;;;;;;;5072667;28;20469;-68
2021/11/29 06:21:41;;;;;;;17.35;7.72;;;;;;;;;;5092906;28;20497;-74
2021/11/29 06:24:06;;;;;;;14.35;8.27;;;;;;;;;;5086320;28;20554;-69
2021/11/29 06:26:32;;;;;;;18.33;9.02;;;;;;;;;;5090993;28;20028;-73
2021/11/29 06:28:57;;;;;;;20.23;10.45;;;;;;;;;;5083155;28;20036;-68
2021/11/29 06:31:22;;;;;;;17.95;9.52;;;;;;;;;;5090666;28;20023;-71
2021/11/29 06:33:47;;;;;;;18.65;9.75;;;;;;;;;;5091653;28;20039;-68
2021/11/29 06:36:13;;;;;;;14.27;7.75;;;;;;;;;;5088951;28;20027;-71
2021/11/29 06:38:38;;;;;;;15.93;8.57;;;;;;;;;;5090644;28;20032;-68
2021/11/29 06:41:04;;;;;;;21.90;8.00;;;;;;;;;;5091251;28;20022;-68
2021/11/29 06:43:29;;;;;;;17.33;9.07;;;;;;;;;;5089827;28;20020;-72
2021/11/29 06:45:55;;;;;;;13.68;8.10;;;;;;;;;;5088291;28;20504;-71
2021/11/29 06:48:20;;;;;;;19.88;8.77;;;;;;;;;;5085462;28;20103;-68
2021/11/29 06:50:46;;;;;;;16.45;7.63;;;;;;;;;;5093156;28;20086;-69
2021/11/29 06:53:12;;;;;;;16.50;9.05;;;;;;;;;;5097082;28;20499;-71
2021/11/29 06:55:37;;;;;;;18.20;9.57;;;;;;;;;;5079149;28;20032;-70
2021/11/29 06:58:03;;;;;;;15.13;9.05;;;;;;;;;;5082882;28;20050;-72
2021/11/29 07:00:28;;;;;;;17.73;9.15;;;;;;;;;;5069808;28;20024;-72
2021/11/29 07:02:54;;;;;;;17.60;9.35;;;;;;;;;;5078873;28;20020;-72
2021/11/29 07:05:19;;;;;;;19.05;9.57;;;;;;;;;;5087219;28;20392;-70
2021/11/29 07:07:48;;;;;;;14.90;8.65;;;;;;;;;;5088282;28;20508;-70
2021/11/29 07:10:14;;;;;;;21.10;9.68;;;;;;;;;;5071272;28;20024;-69
2021/11/29 07:12:40;;;;;;;18.08;8.88;;;;;;;;;;5081743;28;20016;-71
2021/11/29 07:15:06;;;;;;;15.50;8.98;;;;;;;;;;5092098;28;20026;-71
2021/11/29 07:17:31;;;;;;;16.20;8.95;;;;;;;;;;5073511;28;20528;-69
2021/11/29 07:19:57;;;;;;;18.55;9.15;;;;;;;;;;5071853;28;20021;-69
2021/11/29 07:22:24;;;;;;;17.88;8.75;;;;;;;;;;5071612;28;20047;-70
2021/11/29 07:24:51;;;;;;;20.65;9.35;;;;;;;;;;5092573;28;20093;-69
2021/11/29 07:27:16;;;;;;;18.60;10.00;;;;;;;;;;5089978;28;20023;-71
2021/11/29 07:29:42;;;;;;;20.50;9.00;;;;;;;;;;5089527;28;20557;-69
2021/11/29 07:32:07;;;;;;;23.35;9.90;;;;;;;;;;5086972;28;20024;-69
2021/11/29 07:34:33;;;;;;;17.60;8.15;;;;;;;;;;5076324;28;20098;-71
2021/11/29 07:36:58;;;;;;;18.73;8.82;;;;;;;;;;5089548;28;20103;-71
2021/11/29 07:39:23;;;;;;;14.88;8.70;;;;;;;;;;5088818;28;20085;-70
2021/11/29 07:41:50;;;;;;;14.57;7.65;;;;;;;;;;5085591;28;20111;-72
2021/11/29 07:44:16;;;;;;;13.45;7.00;;;;;;;;;;5071570;28;20025;-70
2021/11/29 07:46:41;;;;;;;15.02;6.78;;;;;;;;;;5071087;28;20039;-70
2021/11/29 07:49:06;;;;;;;16.63;8.05;;;;;;;;;;5078728;28;20081;-70
2021/11/29 07:51:31;;;;;;;15.27;6.82;;;;;;;;;;5090855;28;20059;-70
2021/11/29 07:53:56;;;;;;;15.18;9.13;;;;;;;;;;5091334;28;20106;-71
2021/11/29 07:56:22;;;;;;;14.88;7.38;;;;;;;;;;5082304;28;20028;-70
2021/11/29 07:58:47;;;;;;;17.88;8.07;;;;;;;;;;5080509;28;20023;-70
2021/11/29 08:01:13;;;;;;;18.05;9.93;;;;;;;;;;5081175;28;20027;-70
2021/11/29 08:03:38;;;;;;;14.35;6.40;;;;;;;;;;5086295;28;20028;-70
2021/11/29 08:06:03;;;;;;;17.42;6.95;;;;;;;;;;5086158;28;20020;-70
2021/11/29 08:08:29;;;;;;;18.00;8.25;;;;;;;;;;5084338;28;20504;-70
2021/11/29 08:10:54;;;;;;;21.98;9.07;;;;;;;;;;5075085;28;20412;-70
2021/11/29 08:13:19;;;;;;;14.20;8.07;;;;;;;;;;5083675;28;20035;-72
2021/11/29 08:15:44;;;;;;;20.52;9.00;;;;;;;;;;5077345;28;20020;-70
2021/11/29 08:18:10;;;;;;;20.63;10.50;;;;;;;;;;5081140;28;20027;-70
2021/11/29 08:20:36;;;;;;;20.48;9.80;;;;;;;;;;5075813;28;20008;-70
2021/11/29 08:23:01;;;;;;;25.80;11.77;;;;;;;;;;5074572;28;20059;-70
2021/11/29 08:25:27;;;;;;;21.33;11.48;;;;;;;;;;5076728;28;20024;-70
2021/11/29 08:27:52;;;;;;;24.73;11.23;;;;;;;;;;5089818;28;20030;-70
2021/11/29 08:30:22;;;;;;;24.98;10.15;;;;;;;;;;5078977;28;20028;-70
2021/11/29 08:32:48;;;;;;;23.92;9.63;;;;;;;;;;5085597;28;20476;-70
2021/11/29 08:35:15;;;;;;;27.90;12.13;;;;;;;;;;5088807;28;20450;-70
2021/11/29 08:37:45;;;;;;;21.90;10.68;;;;;;;;;;5086427;28;20436;-70
2021/11/29 08:40:11;;;;;;;;;;;;;;;;;;5083008;28;20542;-70
2021/11/29 08:42:36;;;;;;;35.22;11.10;;;;;;;;;;5089273;28;20406;-70
2021/11/29 08:45:02;;;;;;;23.20;11.55;;;;;;;;;;5085641;28;20842;-70
2021/11/29 08:47:28;;;;;;;26.42;11.23;;;;;;;;;;5077519;28;20028;-70
2021/11/29 08:49:53;;;;;;;26.00;10.73;;;;;;;;;;5073644;28;20032;-70
2021/11/29 08:52:19;;;;;;;25.33;10.73;;;;;;;;;;5072679;28;20047;-73
2021/11/29 08:54:44;;;;;;;25.33;11.65;;;;;;;;;;5088854;28;20059;-70
2021/11/29 08:57:09;;;;;;;26.85;13.20;;;;;;;;;;5074636;28;20029;-70
2021/11/29 08:59:35;;;;;;;26.33;12.48;;;;;;;;;;5084677;28;20047;-70
2021/11/29 09:02:00;;;;;;;24.00;12.68;;;;;;;;;;5085909;28;20452;-70
2021/11/29 09:04:25;;;;;;;28.70;11.55;;;;;;;;;;5078137;28;20024;-71
2021/11/29 09:06:50;;;;;;;23.55;10.45;;;;;;;;;;5088025;28;20544;-70
2021/11/29 09:09:15;;;;;;;24.42;11.25;;;;;;;;;;5077995;28;20517;-70
2021/11/29 09:11:41;;;;;;;24.33;9.82;;;;;;;;;;5080024;28;20027;-70
2021/11/29 09:14:06;;;;;;;26.83;10.50;;;;;;;;;;5089341;28;20420;-70
2021/11/29 09:16:32;;;;;;;22.60;10.45;;;;;;;;;;5088996;28;20020;-70
2021/11/29 09:18:57;;;;;;;24.90;10.40;;;;;;;;;;5075286;28;20035;-70
2021/11/29 09:21:23;;;;;;;33.47;13.32;;;;;;;;;;5089915;28;20483;-70
2021/11/29 09:23:49;;;;;;;27.88;11.98;;;;;;;;;;5073837;28;20036;-70
2021/11/29 09:26:14;;;;;;;37.35;17.20;;;;;;;;;;5082877;28;20020;-70
2021/11/29 09:28:40;;;;;;;28.60;11.75;;;;;;;;;;5080193;28;20099;-70
2021/11/29 09:31:05;;;;;;;33.95;14.75;;;;;;;;;;5084334;28;20095;-72
2021/11/29 09:33:30;;;;;;;30.10;13.35;;;;;;;;;;5089476;28;20046;-71
2021/11/29 09:35:56;;;;;;;31.95;13.30;;;;;;;;;;5088785;28;20056;-71
2021/11/29 09:38:22;;;;;;;32.60;14.15;;;;;;;;;;5080214;28;20170;-70
2021/11/29 09:40:47;;;;;;;35.70;12.27;;;;;;;;;;5087434;28;20019;-71
2021/11/29 09:43:14;;;;;;;32.85;15.15;;;;;;;;;;5086413;28;20051;-71
2021/11/29 09:45:41;;;;;;;34.90;13.48;;;;;;;;;;5088414;28;20480;-72
2021/11/29 09:48:07;;;;;;;33.22;13.90;;;;;;;;;;5078881;28;20032;-71
2021/11/29 09:50:33;;;;;;;40.28;15.18;;;;;;;;;;5083954;28;20026;-72
2021/11/29 09:52:58;;;;;;;39.33;13.77;;;;;;;;;;5093337;28;20020;-71
2021/11/29 09:55:25;;;;;;;34.25;13.82;;;;;;;;;;5089932;28;20468;-71
2021/11/29 09:57:51;;;;;;;32.50;13.43;;;;;;;;;;5093210;28;20112;-71
2021/11/29 10:00:27;;;;;;;34.13;14.13;;;;;;;;;;5077000;28;20111;-71
2021/11/29 10:02:52;;;;;;;35.47;13.52;;;;;;;;;;5083278;28;20439;-70
2021/11/29 10:05:18;;;;;;;32.90;15.45;;;;;;;;;;5077640;28;20034;-71
2021/11/29 10:07:47;;;;;;;28.50;15.23;;;;;;;;;;5089700;28;20551;-71
2021/11/29 10:10:18;;;;;;;25.40;11.27;;;;;;;;;;5091983;28;20031;-71
2021/11/29 10:12:44;;;;;;;24.38;11.75;;;;;;;;;;5081120;28;20031;-71
2021/11/29 10:15:12;;;;;;;24.17;10.48;;;;;;;;;;5087718;28;20058;-71
2021/11/29 10:17:38;;;;;;;22.17;9.23;;;;;;;;;;5092266;28;20123;-71
2021/11/29 10:20:04;;;;;;;25.98;12.30;;;;;;;;;;5081171;28;20096;-74
2021/11/29 10:22:29;;;;;;;34.35;12.77;;;;;;;;;;5087685;28;20065;-71
2021/11/29 10:24:54;;;;;;;32.78;14.45;;;;;;;;;;5085983;28;20464;-71
2021/11/29 10:27:36;;;;;;;29.15;12.05;;;;;;;;;;5090158;28;20028;-72
2021/11/29 10:30:01;;;;;;;30.27;13.25;;;;;;;;;;5092373;28;20031;-71
2021/11/29 10:32:30;;;;;;;28.20;12.00;;;;;;;;;;5073761;28;20028;-73
2021/11/29 10:34:55;;;;;;;28.23;12.90;;;;;;;;;;5076439;28;20024;-71
2021/11/29 10:37:25;;;;;;;41.92;15.48;;;;;;;;;;5077942;28;20017;-72
2021/11/29 10:39:52;;;;;;;29.20;13.23;;;;;;;;;;5073881;28;20016;-72
2021/11/29 10:42:17;;;;;;;30.65;13.25;;;;;;;;;;5083352;28;20032;-72
2021/11/29 10:44:43;;;;;;;23.45;11.18;;;;;;;;;;5087837;28;20031;-71
2021/11/29 10:47:10;;;;;;;34.33;11.82;;;;;;;;;;5090415;28;20657;-71
2021/11/29 10:49:40;;;;;;;29.67;12.77;;;;;;;;;;5083350;28;20028;-71
2021/11/29 10:52:05;;;;;;;24.90;11.70;;;;;;;;;;5087578;28;20016;-71
2021/11/29 10:54:31;;;;;;;26.85;11.73;;;;;;;;;;5083330;28;20373;-71
2021/11/29 10:56:57;;;;;;;26.42;12.50;;;;;;;;;;5080005;28;20023;-71
2021/11/29 10:59:25;;;;;;;32.85;13.13;;;;;;;;;;5089716;28;20103;-72
2021/11/29 11:01:51;;;;;;;33.38;11.32;;;;;;;;;;5076348;28;20017;-74
2021/11/29 11:04:21;;;;;;;26.33;11.38;;;;;;;;;;5090792;28;20021;-71
2021/11/29 11:06:47;;;;;;;27.25;13.68;;;;;;;;;;5085284;28;20031;-73
2021/11/29 11:09:12;;;;;;;20.88;10.23;;;;;;;;;;5071466;28;20082;-71
2021/11/29 11:11:41;;;;;;;21.70;8.77;;;;;;;;;;5073018;28;20028;-71
2021/11/29 11:14:06;;;;;;;22.05;11.20;;;;;;;;;;5081048;28;20286;-71
2021/11/29 11:16:50;;;;;;;22.45;12.63;;;;;;;;;;5095758;28;20020;-71
2021/11/29 11:19:20;;;;;;;22.85;9.30;;;;;;;;;;5079999;28;20387;-73
2021/11/29 11:21:45;;;;;;;23.10;11.25;;;;;;;;;;5085094;28;20503;-73
2021/11/29 11:24:18;;;;;;;31.17;10.23;;;;;;;;;;5071385;28;20029;-71
2021/11/29 11:26:47;;;;;;;24.73;11.45;;;;;;;;;;5071183;28;20526;-71
2021/11/29 11:29:13;;;;;;;20.70;10.70;;;;;;;;;;5076418;28;20081;-71
2021/11/29 11:31:39;;;;;;;15.73;8.90;;;;;;;;;;5078742;28;20031;-72
2021/11/29 11:34:04;;;;;;;32.03;11.02;;;;;;;;;;5071492;28;20028;-71
2021/11/29 11:36:29;;;;;;;15.40;9.15;;;;;;;;;;5084595;28;20019;-71
2021/11/29 11:39:02;;;;;;;22.45;10.50;;;;;;;;;;5088749;28;20482;-71
2021/11/29 11:41:27;;;;;;;22.02;8.70;;;;;;;;;;5071132;28;20024;-72
2021/11/29 11:43:52;;;;;;;24.95;10.65;;;;;;;;;;5071605;28;20473;-72
2021/11/29 11:46:19;;;;;;;27.48;11.88;;;;;;;;;;5088140;28;20082;-71
2021/11/29 11:48:44;;;;;;;24.73;8.70;;;;;;;;;;5072763;28;20020;-71
2021/11/29 11:51:11;;;;;;;17.75;9.00;;;;;;;;;;5071108;28;20021;-71
2021/11/29 11:53:38;;;;;;;21.42;10.60;;;;;;;;;;5072563;28;20028;-72
2021/11/29 11:56:03;;;;;;;21.75;10.20;;;;;;;;;;5089472;28;20085;-73
2021/11/29 11:58:35;;;;;;;20.90;10.20;;;;;;;;;;5089362;28;20484;-71
2021/11/29 12:01:03;;;;;;;22.80;9.10;;;;;;;;;;5072695;28;20024;-71
2021/11/29 12:03:33;;;;;;;15.50;8.80;;;;;;;;;;5070887;28;20036;-71
2021/11/29 12:06:02;;;;;;;17.02;8.55;;;;;;;;;;5071059;28;20031;-71
2021/11/29 12:08:35;;;;;;;17.57;8.60;;;;;;;;;;5082911;28;20207;-70
2021/11/29 12:11:05;;;;;;;25.25;8.50;;;;;;;;;;5072312;28;20498;-71
2021/11/29 12:13:40;;;;;;;15.77;7.57;;;;;;;;;;5089513;28;20380;-70
2021/11/29 12:16:08;;;;;;;14.68;6.15;;;;;;;;;;5073981;28;20077;-72
2021/11/29 12:18:39;;;;;;;22.75;7.13;;;;;;;;;;5089597;28;20548;-70
2021/11/29 12:21:13;;;;;;;18.17;8.50;;;;;;;;;;5086311;28;20082;-71
2021/11/29 12:23:41;;;;;;;14.95;6.85;;;;;;;;;;5082982;28;20423;-72
2021/11/29 12:26:06;;;;;;;16.15;8.30;;;;;;;;;;5072116;28;20039;-75
2021/11/29 12:28:36;;;;;;;17.00;6.43;;;;;;;;;;5080876;28;20069;-71
2021/11/29 12:31:01;;;;;;;11.52;6.50;;;;;;;;;;5090657;28;20016;-71
2021/11/29 12:33:41;;;;;;;18.08;6.25;;;;;;;;;;5088985;28;20177;-73
2021/11/29 12:36:06;;;;;;;15.35;5.88;;;;;;;;;;5077461;28;20021;-71
2021/11/29 12:38:44;;;;;;;9.82;4.70;;;;;;;;;;5082722;28;20050;-71
2021/11/29 12:41:09;;;;;;;17.65;6.47;;;;;;;;;;5089443;28;20153;-72
2021/11/29 12:43:39;;;;;;;18.15;6.32;;;;;;;;;;5087355;28;20103;-71
2021/11/29 12:46:16;;;;;;;20.73;6.10;;;;;;;;;;5082872;28;20028;-71
2021/11/29 12:48:41;;;;;;;10.55;5.18;;;;;;;;;;5078098;28;20533;-71
2021/11/29 12:51:06;;;;;;;15.60;6.32;;;;;;;;;;5074286;28;20117;-71
2021/11/29 12:53:38;;;;;;;10.65;4.57;;;;;;;;;;5072716;28;20040;-71
2021/11/29 12:56:03;;;;;;;14.52;5.28;;;;;;;;;;5073134;28;20027;-71
2021/11/29 12:58:30;;;;;;;15.43;5.05;;;;;;;;;;5071824;28;20020;-71
2021/11/29 13:01:04;;;;;;;15.32;5.18;;;;;;;;;;5084612;28;20266;-71
2021/11/29 13:03:30;;;;;;;17.30;5.90;;;;;;;;;;5076414;28;20400;-73
2021/11/29 13:06:00;;;;;;;11.93;5.95;;;;;;;;;;5077671;28;20028;-71
2021/11/29 13:08:28;;;;;;;9.95;4.15;;;;;;;;;;5076897;28;20035;-71
2021/11/29 13:10:58;;;;;;;7.82;4.35;;;;;;;;;;5082573;28;20106;-72
2021/11/29 13:13:26;;;;;;;11.68;4.35;;;;;;;;;;5077691;28;20016;-72
2021/11/29 13:15:53;;;;;;;11.45;5.13;;;;;;;;;;5092494;28;20420;-73
2021/11/29 13:18:52;;;;;;;11.73;5.00;;;;;;;;;;5084311;28;20022;-73
2021/11/29 13:21:29;;;;;;;14.68;4.70;;;;;;;;;;5040154;28;20033;-71
2021/11/29 13:23:54;;;;;;;10.05;4.72;;;;;;;;;;5073953;28;20024;-74
2021/11/29 13:26:20;;;;;;;14.43;5.03;;;;;;;;;;5094206;28;20149;-70
2021/11/29 13:28:47;;;;;;;9.38;5.10;;;;;;;;;;5091983;28;20596;-71
2021/11/29 13:31:14;;;;;;;12.18;4.85;;;;;;;;;;5083044;28;20108;-72
2021/11/29 13:33:39;;;;;;;13.77;4.88;;;;;;;;;;5093857;28;20050;-71
2021/11/29 13:36:05;;;;;;;14.88;5.40;;;;;;;;;;5093581;28;20016;-72
2021/11/29 13:38:31;;;;;;;13.20;4.68;;;;;;;;;;5090893;28;20606;-73
2021/11/29 13:40:56;;;;;;;13.75;4.90;;;;;;;;;;5089540;28;20099;-71
2021/11/29 13:43:27;;;;;;;7.13;4.32;;;;;;;;;;5093811;28;20027;-73
2021/11/29 13:45:53;;;;;;;12.93;5.97;;;;;;;;;;5093603;28;20028;-73
2021/11/29 13:48:20;;;;;;;11.35;4.40;;;;;;;;;;5087026;28;20020;-71
2021/11/29 13:50:49;;;;;;;14.85;5.68;;;;;;;;;;5086600;28;20046;-73
2021/11/29 13:53:16;;;;;;;13.40;4.82;;;;;;;;;;5077152;28;20059;-71
2021/11/29 13:55:43;;;;;;;12.95;4.88;;;;;;;;;;5090775;28;20020;-70
2021/11/29 13:58:14;;;;;;;13.50;4.43;;;;;;;;;;5089600;28;20027;-71
2021/11/29 14:01:00;;;;;;;9.55;4.72;;;;;;;;;;5085166;28;20392;-70
2021/11/29 14:03:36;;;;;;;14.15;4.90;;;;;;;;;;5077338;28;20118;-71
2021/11/29 14:06:07;;;;;;;14.40;4.35;;;;;;;;;;5091572;28;20020;-71
2021/11/29 14:08:36;;;;;;;10.70;4.38;;;;;;;;;;5092732;28;20024;-72
2021/11/29 14:11:06;;;;;;;17.27;5.38;;;;;;;;;;5090636;28;20028;-71
2021/11/29 14:13:54;;;;;;;7.90;4.05;;;;;;;;;;5081194;28;20023;-71
2021/11/29 14:16:24;;;;;;;11.10;3.95;;;;;;;;;;5074071;28;20090;-71
2021/11/29 14:18:50;;;;;;;8.60;4.35;;;;;;;;;;5072964;28;20025;-70